createdAt,value
2022-12-20T00:01:24.364Z,29.60
2022-12-20T00:03:52.415Z,28.90
2022-12-20T00:06:19.670Z,31.00
2022-12-20T00:08:46.791Z,33.55
2022-12-20T00:11:15.567Z,28.05
2022-12-20T00:13:42.180Z,23.10
2022-12-20T00:16:12.965Z,26.33
2022-12-20T00:18:41.097Z,27.42
2022-12-20T00:21:10.885Z,28.90
2022-12-20T00:23:38.209Z,29.90
2022-12-20T00:26:10.360Z,30.70
2022-12-20T00:28:38.514Z,32.08
2022-12-20T00:31:06.095Z,31.20
2022-12-20T00:33:33.772Z,32.95
2022-12-20T00:36:00.423Z,33.55
2022-12-20T00:38:27.521Z,34.28
2022-12-20T00:41:24.751Z,32.72
2022-12-20T00:43:52.196Z,30.40
2022-12-20T00:46:20.575Z,31.00
2022-12-20T00:48:47.775Z,31.20
2022-12-20T00:51:17.044Z,30.02
2022-12-20T00:53:44.604Z,30.33
2022-12-20T00:56:11.549Z,29.75
2022-12-20T00:58:40.741Z,35.80
2022-12-20T01:01:15.458Z,31.85
2022-12-20T01:03:42.619Z,30.63
2022-12-20T01:06:10.731Z,39.22
2022-12-20T01:08:37.499Z,36.53
2022-12-20T01:11:07.840Z,37.35
2022-12-20T01:13:37.779Z,35.13
2022-12-20T01:16:10.667Z,36.83
2022-12-20T01:18:37.371Z,39.10
2022-12-20T01:21:06.087Z,34.50
2022-12-20T01:23:32.980Z,37.08
2022-12-20T01:26:04.917Z,38.88
2022-12-20T01:28:32.398Z,34.33
2022-12-20T01:30:59.099Z,36.17
2022-12-20T01:33:25.770Z,35.60
2022-12-20T01:36:00.427Z,33.47
2022-12-20T01:38:27.760Z,38.65
2022-12-20T01:40:55.571Z,41.10
2022-12-20T01:43:22.488Z,35.50
2022-12-20T01:45:49.353Z,35.95
2022-12-20T01:48:25.743Z,37.03
2022-12-20T01:50:53.209Z,35.67
2022-12-20T01:53:22.780Z,37.35
2022-12-20T01:55:49.624Z,33.20
2022-12-20T01:58:19.263Z,33.88
2022-12-20T02:00:46.260Z,32.92
2022-12-20T02:03:14.920Z,30.67
2022-12-20T02:05:45.632Z,31.20
2022-12-20T02:08:15.655Z,33.80
2022-12-20T02:10:54.777Z,32.53
2022-12-20T02:13:30.129Z,31.83
2022-12-20T02:15:58.340Z,28.20
2022-12-20T02:18:47.590Z,32.55
2022-12-20T02:21:47.677Z,30.50
2022-12-20T02:24:28.657Z,26.15
2022-12-20T02:27:19.916Z,31.02
2022-12-20T02:30:10.355Z,29.52
2022-12-20T02:32:42.598Z,29.73
2022-12-20T02:35:10.587Z,33.15
2022-12-20T02:37:37.286Z,32.92
2022-12-20T02:40:05.261Z,36.15
2022-12-20T02:42:33.243Z,37.22
2022-12-20T02:45:17.941Z,31.95
2022-12-20T02:48:25.399Z,30.15
2022-12-20T02:50:54.176Z,29.33
2022-12-20T02:53:22.260Z,27.30
2022-12-20T02:55:56.919Z,30.38
2022-12-20T03:01:55.241Z,31.98
2022-12-20T03:04:28.513Z,30.70
2022-12-20T03:07:03.525Z,27.27
2022-12-20T03:09:31.655Z,29.40
2022-12-20T03:11:58.440Z,32.58
2022-12-20T03:14:26.139Z,34.40
2022-12-20T03:16:52.989Z,30.20
2022-12-20T03:19:19.674Z,33.15
2022-12-20T03:21:46.750Z,30.83
2022-12-20T03:24:14.597Z,31.10
2022-12-20T03:26:41.921Z,30.33
2022-12-20T03:29:08.708Z,31.63
2022-12-20T03:31:35.948Z,31.58
2022-12-20T03:34:02.868Z,27.48
2022-12-20T03:36:29.584Z,26.33
2022-12-20T03:38:56.666Z,33.80
2022-12-20T03:41:24.440Z,30.92
2022-12-20T03:43:52.982Z,26.77
2022-12-20T03:46:19.755Z,26.58
2022-12-20T03:48:46.457Z,30.45
2022-12-20T03:51:13.097Z,36.17
2022-12-20T03:53:39.707Z,27.33
2022-12-20T03:56:06.699Z,27.77
2022-12-20T03:58:33.307Z,27.52
2022-12-20T04:01:00.036Z,28.35
2022-12-20T04:03:26.924Z,39.88
2022-12-20T04:05:53.565Z,39.10
2022-12-20T04:08:20.155Z,30.63
2022-12-20T04:11:05.500Z,29.98
2022-12-20T04:13:32.154Z,32.58
2022-12-20T04:16:00.829Z,33.33
2022-12-20T04:18:27.964Z,34.63
2022-12-20T04:20:55.241Z,31.20
2022-12-20T04:23:30.578Z,31.17
2022-12-20T04:25:57.180Z,33.78
2022-12-20T04:28:23.779Z,41.50
2022-12-20T04:30:50.442Z,30.83
2022-12-20T04:33:18.188Z,24.92
2022-12-20T04:35:44.914Z,30.98
2022-12-20T04:38:11.573Z,29.98
2022-12-20T04:40:38.393Z,30.65
2022-12-20T04:43:05.087Z,31.67
2022-12-20T04:45:31.713Z,26.35
2022-12-20T04:47:58.322Z,30.48
2022-12-20T04:50:26.039Z,31.42
2022-12-20T04:53:11.271Z,33.17
2022-12-20T04:55:38.956Z,32.72
2022-12-20T04:58:07.866Z,32.88
2022-12-20T05:00:35.237Z,27.80
2022-12-20T05:03:02.233Z,31.27
2022-12-20T05:05:29.137Z,25.48
2022-12-20T05:07:56.304Z,32.92
2022-12-20T05:10:23.094Z,25.27
2022-12-20T05:12:49.865Z,32.03
2022-12-20T05:15:16.518Z,38.33
2022-12-20T05:17:43.213Z,33.10
2022-12-20T05:20:10.571Z,30.02
2022-12-20T05:22:55.994Z,32.88
2022-12-20T05:25:41.216Z,27.98
2022-12-20T05:28:08.130Z,32.80
2022-12-20T05:30:34.828Z,32.10
2022-12-20T05:33:01.458Z,30.27
2022-12-20T05:35:28.160Z,30.30
2022-12-20T05:37:55.061Z,27.42
2022-12-20T05:40:22.338Z,27.17
2022-12-20T05:42:48.944Z,39.85
2022-12-20T05:45:15.600Z,30.08
2022-12-20T05:47:42.201Z,32.90
2022-12-20T05:50:12.343Z,27.63
2022-12-20T05:52:43.380Z,32.00
2022-12-20T05:55:10.670Z,27.20
2022-12-20T05:57:37.309Z,33.25
2022-12-20T06:00:05.946Z,30.42
2022-12-20T06:02:32.807Z,30.55
2022-12-20T06:04:59.706Z,32.88
2022-12-20T06:07:28.978Z,34.55
2022-12-20T06:09:56.523Z,32.40
2022-12-20T06:12:23.450Z,34.13
2022-12-20T06:14:50.383Z,37.10
2022-12-20T06:17:17.337Z,32.97
2022-12-20T06:19:43.982Z,40.25
2022-12-20T06:22:10.795Z,41.10
2022-12-20T06:24:44.308Z,35.42
2022-12-20T06:27:14.506Z,41.17
2022-12-20T06:29:41.185Z,43.95
2022-12-20T06:32:07.883Z,43.85
2022-12-20T06:34:34.570Z,57.50
2022-12-20T06:37:01.192Z,37.53
2022-12-20T06:39:30.989Z,42.80
2022-12-20T06:41:57.590Z,47.92
2022-12-20T06:44:24.186Z,45.40
2022-12-20T06:46:50.912Z,42.55
2022-12-20T06:49:17.615Z,39.13
2022-12-20T06:51:44.250Z,37.42
2022-12-20T06:54:10.874Z,46.50
2022-12-20T06:56:41.263Z,45.28
2022-12-20T06:59:08.411Z,44.70
2022-12-20T07:01:36.378Z,43.10
2022-12-20T07:04:03.243Z,46.17
2022-12-20T07:06:29.879Z,38.92
2022-12-20T07:08:56.558Z,36.53
2022-12-20T07:11:23.206Z,35.25
2022-12-20T07:13:50.333Z,40.58
2022-12-20T07:16:17.020Z,45.00
2022-12-20T07:18:43.710Z,41.58
2022-12-20T07:21:10.389Z,38.30
2022-12-20T07:23:37.094Z,40.45
2022-12-20T07:26:04.053Z,33.88
2022-12-20T07:28:30.873Z,34.35
2022-12-20T07:31:02.058Z,38.55
2022-12-20T07:33:29.334Z,42.13
2022-12-20T07:36:07.890Z,36.28
2022-12-20T07:38:35.675Z,31.73
2022-12-20T07:41:08.286Z,31.55
2022-12-20T07:43:37.830Z,36.83
2022-12-20T07:46:05.658Z,37.28
2022-12-20T07:48:32.982Z,33.00
2022-12-20T07:51:03.169Z,34.20
2022-12-20T07:53:32.960Z,31.75
2022-12-20T07:56:02.687Z,33.45
2022-12-20T07:58:37.151Z,33.38
2022-12-20T08:01:04.986Z,36.05
2022-12-20T08:03:38.902Z,37.55
2022-12-20T08:06:07.255Z,35.00
2022-12-20T08:08:37.954Z,34.05
2022-12-20T08:11:08.545Z,32.40
2022-12-20T08:13:38.165Z,34.72
2022-12-20T08:16:09.266Z,35.85
2022-12-20T08:18:35.911Z,38.30
2022-12-20T08:21:02.554Z,36.47
2022-12-20T08:23:29.231Z,31.73
2022-12-20T08:25:55.820Z,35.75
2022-12-20T08:28:24.003Z,42.45
2022-12-20T08:30:50.776Z,36.17
2022-12-20T08:33:17.660Z,41.25
2022-12-20T08:35:44.304Z,34.97
2022-12-20T08:38:11.146Z,40.47
2022-12-20T08:40:37.780Z,36.08
2022-12-20T08:43:09.951Z,31.48
2022-12-20T08:45:37.143Z,31.65
2022-12-20T08:48:03.920Z,36.88
2022-12-20T08:50:30.505Z,38.53
2022-12-20T08:52:57.153Z,37.38
2022-12-20T08:55:29.179Z,48.22
2022-12-20T08:57:56.326Z,36.25
2022-12-20T09:00:23.032Z,33.35
2022-12-20T09:02:51.862Z,31.80
2022-12-20T09:05:21.816Z,31.13
2022-12-20T09:07:48.422Z,36.20
2022-12-20T09:10:16.205Z,32.17
2022-12-20T09:12:42.829Z,30.42
2022-12-20T09:15:10.522Z,32.03
2022-12-20T09:17:37.184Z,34.80
2022-12-20T09:20:05.277Z,29.80
2022-12-20T09:22:31.858Z,34.22
2022-12-20T09:24:58.457Z,33.15
2022-12-20T09:27:25.052Z,36.08
2022-12-20T09:29:51.958Z,33.80
2022-12-20T09:32:18.552Z,33.25
2022-12-20T09:34:45.181Z,37.58
2022-12-20T09:37:13.845Z,31.50
2022-12-20T09:39:40.487Z,29.42
2022-12-20T09:42:09.230Z,35.22
2022-12-20T09:44:41.383Z,29.20
2022-12-20T09:47:18.115Z,30.25
2022-12-20T09:49:48.315Z,27.30
2022-12-20T09:52:35.116Z,28.00
2022-12-20T09:55:07.805Z,30.27
2022-12-20T09:57:56.396Z,27.95
2022-12-20T10:00:23.710Z,29.20
2022-12-20T10:03:08.249Z,28.35
2022-12-20T10:05:45.961Z,23.55
2022-12-20T10:08:17.332Z,25.05
2022-12-20T10:10:51.220Z,26.35
2022-12-20T10:13:31.763Z,28.60
2022-12-20T10:16:10.044Z,25.92
2022-12-20T10:18:51.221Z,26.10
2022-12-20T10:21:35.851Z,29.08
2022-12-20T10:24:27.631Z,29.20
2022-12-20T10:26:54.389Z,23.33
2022-12-20T10:29:21.247Z,25.92
2022-12-20T10:31:54.603Z,25.67
2022-12-20T10:34:21.180Z,29.10
2022-12-20T10:37:01.423Z,26.25
2022-12-20T10:39:41.957Z,26.07
2022-12-20T10:42:26.018Z,21.67
2022-12-20T10:44:53.708Z,23.77
2022-12-20T10:47:31.859Z,17.77
2022-12-20T10:50:18.139Z,20.73
2022-12-20T10:52:46.064Z,21.90
2022-12-20T10:55:35.562Z,20.60
2022-12-20T10:58:42.214Z,20.90
2022-12-20T11:01:14.154Z,19.88
2022-12-20T11:03:51.626Z,21.87
2022-12-20T11:06:19.799Z,21.17
2022-12-20T11:08:54.002Z,20.97
2022-12-20T11:11:26.465Z,19.50
2022-12-20T11:13:54.001Z,19.60
2022-12-20T11:16:36.997Z,18.37
2022-12-20T11:19:14.284Z,16.23
2022-12-20T11:22:04.913Z,15.43
2022-12-20T11:24:57.842Z,17.83
2022-12-20T11:28:02.159Z,17.83
2022-12-20T11:30:53.990Z,19.03
2022-12-20T11:33:39.343Z,18.50
2022-12-20T11:36:30.670Z,17.17
2022-12-20T11:39:34.907Z,17.30
2022-12-20T11:42:18.216Z,17.47
2022-12-20T11:45:03.288Z,23.20
2022-12-20T11:47:46.569Z,16.30
2022-12-20T11:50:32.126Z,20.67
2022-12-20T11:53:12.808Z,21.50
2022-12-20T11:55:46.669Z,21.60
2022-12-20T11:58:23.580Z,22.97
2022-12-20T12:00:59.952Z,20.70
2022-12-20T12:03:36.891Z,17.83
2022-12-20T12:06:17.801Z,18.53
2022-12-20T12:08:50.399Z,18.90
2022-12-20T12:12:06.159Z,13.47
2022-12-20T12:14:41.650Z,22.03
2022-12-20T12:17:16.919Z,16.67
2022-12-20T12:19:48.553Z,11.60
2022-12-20T12:22:22.752Z,16.50
2022-12-20T12:24:54.315Z,18.30
2022-12-20T12:27:26.803Z,22.90
2022-12-20T12:29:56.328Z,12.53
2022-12-20T12:32:26.346Z,12.80
2022-12-20T12:35:17.646Z,13.20
2022-12-20T12:38:14.897Z,13.27
2022-12-20T12:41:18.869Z,14.70
2022-12-20T12:44:00.296Z,14.40
2022-12-20T12:46:30.282Z,12.80
2022-12-20T12:49:24.308Z,11.93
2022-12-20T12:51:53.968Z,16.90
2022-12-20T12:54:34.640Z,16.23
2022-12-20T12:57:06.684Z,16.50
2022-12-20T12:59:33.274Z,12.93
2022-12-20T13:02:05.747Z,12.00
2022-12-20T13:04:57.647Z,11.50
2022-12-20T13:07:33.266Z,14.17
2022-12-20T13:10:03.187Z,15.00
2022-12-20T13:12:38.890Z,17.73
2022-12-20T13:15:20.821Z,12.70
2022-12-20T13:18:01.775Z,15.83
2022-12-20T13:20:29.531Z,17.03
2022-12-20T13:23:08.493Z,14.60
2022-12-20T13:25:37.942Z,12.80
2022-12-20T13:28:34.101Z,13.07
2022-12-20T13:31:04.852Z,14.93
2022-12-20T13:33:44.438Z,12.40
2022-12-20T13:36:11.013Z,13.30
2022-12-20T13:38:44.781Z,13.30
2022-12-20T13:41:35.821Z,12.40
2022-12-20T13:44:14.926Z,13.37
2022-12-20T13:46:46.839Z,16.53
2022-12-20T13:49:23.827Z,14.07
2022-12-20T13:52:26.705Z,15.67
2022-12-20T13:54:56.788Z,18.87
2022-12-20T13:57:41.515Z,14.57
2022-12-20T14:00:22.361Z,13.80
2022-12-20T14:02:49.597Z,11.50
2022-12-20T14:05:31.027Z,13.40
2022-12-20T14:08:26.948Z,14.87
2022-12-20T14:10:53.934Z,14.17
2022-12-20T14:13:24.257Z,14.30
2022-12-20T14:15:52.010Z,14.70
2022-12-20T14:18:26.498Z,12.57
2022-12-20T14:21:01.825Z,11.37
2022-12-20T14:23:35.759Z,14.73
2022-12-20T14:26:03.597Z,16.10
2022-12-20T14:28:35.429Z,11.43
2022-12-20T14:31:03.699Z,15.73
2022-12-20T14:33:41.139Z,13.80
2022-12-20T14:36:20.876Z,14.80
2022-12-20T14:38:52.480Z,13.57
2022-12-20T14:41:40.833Z,12.00
2022-12-20T14:44:08.108Z,12.53
2022-12-20T14:46:36.604Z,13.20
2022-12-20T14:49:19.136Z,11.87
2022-12-20T14:51:49.475Z,13.93
2022-12-20T14:55:06.988Z,12.60
2022-12-20T14:57:27.092Z,12.00
2022-12-20T15:00:01.979Z,13.40
2022-12-20T15:02:54.859Z,12.10
2022-12-20T15:05:37.625Z,13.13
2022-12-20T15:08:18.215Z,13.33
2022-12-20T15:10:52.707Z,11.33
2022-12-20T15:13:22.089Z,14.73
2022-12-20T15:15:48.966Z,11.70
2022-12-20T15:18:17.616Z,11.33
2022-12-20T15:20:47.451Z,13.57
2022-12-20T15:23:19.784Z,15.30
2022-12-20T15:25:48.483Z,14.13
2022-12-20T15:28:18.376Z,19.20
2022-12-20T15:30:47.371Z,16.63
2022-12-20T15:33:26.362Z,12.90
2022-12-20T15:35:53.891Z,14.43
2022-12-20T15:38:40.589Z,87.23
2022-12-20T15:41:31.261Z,19.03
2022-12-20T15:44:00.419Z,15.03
2022-12-20T15:46:27.702Z,17.47
2022-12-20T15:48:54.608Z,15.03
2022-12-20T15:51:27.328Z,20.90
2022-12-20T15:53:54.060Z,14.70
2022-12-20T15:56:23.410Z,16.27
2022-12-20T15:58:52.521Z,15.17
2022-12-20T16:01:28.267Z,15.03
2022-12-20T16:03:55.269Z,16.30
2022-12-20T16:06:23.074Z,15.97
2022-12-20T16:08:51.975Z,17.80
2022-12-20T16:11:24.411Z,14.73
2022-12-20T16:13:53.032Z,19.83
2022-12-20T16:16:27.205Z,16.53
2022-12-20T16:18:54.100Z,18.20
2022-12-20T16:21:23.419Z,17.37
2022-12-20T16:23:53.503Z,19.67
2022-12-20T16:26:22.885Z,17.27
2022-12-20T16:28:51.250Z,13.90
2022-12-20T16:31:25.010Z,19.20
2022-12-20T16:33:53.394Z,14.33
2022-12-20T16:36:20.009Z,17.33
2022-12-20T16:38:46.716Z,18.30
2022-12-20T16:41:16.843Z,13.97
2022-12-20T16:43:44.767Z,14.57
2022-12-20T16:46:16.714Z,16.80
2022-12-20T16:48:43.775Z,15.40
2022-12-20T16:51:38.742Z,15.87
2022-12-20T16:54:19.691Z,14.33
2022-12-20T16:56:47.664Z,16.33
2022-12-20T16:59:19.804Z,16.07
2022-12-20T17:01:48.831Z,13.80
2022-12-20T17:04:17.763Z,17.27
2022-12-20T17:06:46.648Z,15.10
2022-12-20T17:09:13.702Z,15.80
2022-12-20T17:11:40.389Z,16.23
2022-12-20T17:14:12.331Z,17.87
2022-12-20T17:16:39.982Z,17.00
2022-12-20T17:19:07.004Z,15.40
2022-12-20T17:24:24.982Z,27.40
2022-12-20T17:26:52.118Z,18.17
2022-12-20T17:29:18.820Z,16.50
2022-12-20T17:31:47.759Z,24.70
2022-12-20T17:34:25.454Z,13.87
2022-12-20T17:36:54.578Z,22.27
2022-12-20T17:39:21.846Z,21.73
2022-12-20T17:41:51.909Z,16.50
2022-12-20T17:44:24.360Z,14.50
2022-12-20T17:46:51.595Z,17.30
2022-12-20T17:49:18.278Z,13.53
2022-12-20T17:51:45.570Z,14.00
2022-12-20T17:54:26.525Z,13.43
2022-12-20T17:56:54.068Z,17.87
2022-12-20T17:59:21.719Z,25.90
2022-12-20T18:01:48.755Z,22.57
2022-12-20T18:04:16.685Z,21.83
2022-12-20T18:06:45.470Z,22.57
2022-12-20T18:09:19.270Z,22.37
2022-12-20T18:11:46.396Z,20.97
2022-12-20T18:14:13.617Z,17.17
2022-12-20T18:16:40.767Z,14.03
2022-12-20T18:19:14.410Z,15.83
2022-12-20T18:21:41.655Z,21.47
2022-12-20T18:24:11.595Z,16.87
2022-12-20T18:26:38.197Z,30.33
2022-12-20T18:29:08.075Z,30.10
2022-12-20T18:31:35.437Z,24.10
2022-12-20T18:34:03.351Z,16.47
2022-12-20T18:36:34.335Z,18.40
2022-12-20T18:39:02.961Z,16.37
2022-12-20T18:41:30.607Z,18.17
2022-12-20T18:43:59.930Z,22.57
2022-12-20T18:46:28.900Z,21.87
2022-12-20T18:48:58.748Z,33.53
2022-12-20T18:51:29.050Z,29.37
2022-12-20T18:53:57.355Z,16.10
2022-12-20T18:56:26.290Z,14.03
2022-12-20T18:58:55.440Z,16.07
2022-12-20T19:01:24.906Z,14.57
2022-12-20T19:03:52.855Z,12.90
2022-12-20T19:06:20.039Z,14.73
2022-12-20T19:08:47.389Z,17.20
2022-12-20T19:11:16.862Z,15.40
2022-12-20T19:13:43.996Z,14.00
2022-12-20T19:16:16.001Z,15.47
2022-12-20T19:18:43.691Z,14.53
2022-12-20T19:21:21.576Z,12.30
2022-12-20T19:23:51.199Z,14.40
2022-12-20T19:26:19.472Z,13.80
2022-12-20T19:28:46.986Z,12.90
2022-12-20T19:31:21.708Z,14.30
2022-12-20T19:33:51.224Z,13.13
2022-12-20T19:36:24.996Z,15.10
2022-12-20T19:38:55.677Z,13.80
2022-12-20T19:41:23.562Z,16.87
2022-12-20T19:43:51.615Z,18.87
2022-12-20T19:46:25.118Z,20.57
2022-12-20T19:48:55.203Z,20.03
2022-12-20T19:51:22.852Z,16.20
2022-12-20T19:53:51.686Z,16.87
2022-12-20T19:56:21.581Z,14.30
2022-12-20T19:58:50.492Z,23.00
2022-12-20T20:01:18.015Z,26.07
2022-12-20T20:03:45.580Z,26.30
2022-12-20T20:06:19.333Z,23.10
2022-12-20T20:08:48.089Z,22.47
2022-12-20T20:11:15.038Z,18.60
2022-12-20T20:13:41.914Z,16.43
2022-12-20T20:16:10.096Z,16.23
2022-12-20T20:18:40.230Z,17.80
2022-12-20T20:21:13.978Z,17.40
2022-12-20T20:23:41.021Z,17.13
2022-12-20T20:26:10.929Z,15.37
2022-12-20T20:28:44.436Z,15.90
2022-12-20T20:31:14.227Z,15.67
2022-12-20T20:33:41.785Z,16.80
2022-12-20T20:36:12.200Z,15.07
2022-12-20T20:38:38.926Z,16.00
2022-12-20T20:41:05.693Z,14.80
2022-12-20T20:43:36.614Z,13.83
2022-12-20T20:46:06.397Z,18.70
2022-12-20T20:48:33.269Z,17.77
2022-12-20T20:51:00.061Z,15.17
2022-12-20T20:53:33.163Z,15.03
2022-12-20T20:56:01.655Z,14.63
2022-12-20T20:58:29.981Z,13.90
2022-12-20T21:01:01.402Z,15.63
2022-12-20T21:03:30.453Z,15.17
2022-12-20T21:06:34.976Z,16.80
2022-12-20T21:08:44.175Z,15.60
2022-12-20T21:11:11.408Z,13.20
2022-12-20T21:13:39.080Z,14.80
2022-12-20T21:16:11.420Z,15.03
2022-12-20T21:18:38.567Z,16.90
2022-12-20T21:21:14.370Z,14.30
2022-12-20T21:23:46.087Z,17.00
2022-12-20T21:26:14.238Z,25.50
2022-12-20T21:28:41.385Z,14.77
2022-12-20T21:31:11.427Z,16.10
2022-12-20T21:33:40.895Z,19.23
2022-12-20T21:36:16.290Z,16.47
2022-12-20T21:38:48.083Z,15.17
2022-12-20T21:41:14.844Z,18.83
2022-12-20T21:43:41.505Z,19.37
2022-12-20T21:46:11.174Z,17.93
2022-12-20T21:48:39.261Z,17.10
2022-12-20T21:51:10.011Z,15.40
2022-12-20T21:53:45.972Z,15.17
2022-12-20T21:56:12.967Z,17.60
2022-12-20T21:58:39.674Z,16.00
2022-12-20T22:01:10.165Z,18.17
2022-12-20T22:03:38.162Z,15.77
2022-12-20T22:06:05.402Z,16.27
2022-12-20T22:08:32.853Z,19.70
2022-12-20T22:11:05.682Z,18.50
2022-12-20T22:13:39.043Z,16.70
2022-12-20T22:16:08.705Z,20.20
2022-12-20T22:18:35.965Z,17.90
2022-12-20T22:21:07.863Z,17.50
2022-12-20T22:23:34.605Z,15.37
2022-12-20T22:26:06.347Z,15.67
2022-12-20T22:28:33.260Z,16.33
2022-12-20T22:31:07.513Z,20.10
2022-12-20T22:33:34.605Z,21.57
2022-12-20T22:36:08.175Z,18.70
2022-12-20T22:38:35.508Z,15.60
2022-12-20T22:41:16.660Z,17.20
2022-12-20T22:43:44.657Z,17.77
2022-12-20T22:46:12.654Z,19.77
2022-12-20T22:48:40.141Z,15.33
2022-12-20T22:51:12.723Z,15.47
2022-12-20T22:53:40.182Z,16.23
2022-12-20T22:56:07.551Z,14.57
2022-12-20T22:58:35.415Z,17.33
2022-12-20T23:01:04.708Z,15.17
2022-12-20T23:03:32.373Z,16.17
2022-12-20T23:06:01.553Z,17.50
2022-12-20T23:08:30.902Z,17.40
2022-12-20T23:11:16.420Z,20.17
2022-12-20T23:14:02.501Z,17.80
2022-12-20T23:16:29.914Z,16.63
2022-12-20T23:18:58.065Z,29.30
2022-12-20T23:21:43.725Z,15.37
2022-12-20T23:24:11.635Z,17.13
2022-12-20T23:26:40.401Z,13.87
2022-12-20T23:29:08.350Z,17.07
2022-12-20T23:31:35.320Z,16.60
2022-12-20T23:34:02.508Z,15.20
2022-12-20T23:36:30.000Z,15.93
2022-12-20T23:38:56.892Z,16.40
2022-12-20T23:41:23.789Z,14.00
2022-12-20T23:43:50.659Z,17.60
2022-12-20T23:46:19.435Z,16.40
2022-12-20T23:48:46.100Z,16.23
2022-12-20T23:51:13.297Z,16.40
2022-12-20T23:53:40.101Z,14.90
2022-12-20T23:56:12.211Z,15.30
2022-12-20T23:58:39.251Z,15.50
